Miami, Florida
Current Conditions -  °F | °C
As of 7:53 PM on Wednesday 22 Oct 2014 (Local Time) from KMIA Reporting Station
Light Rain Light Rain  
Wind Chill: 75°   Ceiling: 12000
Heat Index: 75°   Visibility: 10mi
Dew Point: 72°   Wind: 3mph
Humidity: 90%   Direction: 280°W
Pressure: 29.95"   Gusts: NA
Location:  25.77°N, 80.19°W
Report Text: KMIA 222353Z 28003KT 10SM -RA FEW014 OVC120 24/22 A2995 RMK AO2 SLP140 P0001 60039 T02390222 10289 20239 53009
Loading
Personal Weather Stations






























Interactive Weather Map New forecast layout! Learn more

10-Day Weather Forecast

Advertisements
Track Severe Weather on mobile